16:05
Airports
History
Links
Donate
Help keep this website running!
PayPal
Bitcoin
This page is community maintained. The information is intended for PC simulator navigation or reference.
Always use approved charts for navigation.
ID56
Star s Ranch
Star s Ranch (ID56)
Mackay, Idaho, United States (83251)
4
Lat/Lng:43° 58' 54.69" N / 114° 2' 37.16" W
43.981859 / -114.043656
Elevation:6660'ft / 2030mMSL
ID / ICAO:ID56
Runways:1
Longest:03-21
Grass 1,529m / 5,016ft
Nearby Weather15:47 GMT 2017-09-21
Nearby weather at KSUN, Friedman Memorial located 35.3 nautical miles from ID56
Altimeter: 29.82
Visibility: 7.0 statute miles
Wind: 6 knots (from 120°)
Temp: 4°c / 39°f
Humidity: 93.2%

METAR: KSUN 211547Z 12006KT 7SM SCT008 BKN010 OVC025 04/03 A2982

(Powered by phpweather)
Nearby VORs <50NM
Nearby NDBs
Runway 03 / 21
Dimensions:1528.9 x 15.2m 5016' x 50'ft
Surface:Grass
Runway 03 [A]Runway 21 [B]
Heading:047°TH 227°TH
Lat:
Lng:
43° 58' 37.86"N
114° 3' 2.25"W
43° 59' 11.53"N
114° 2' 12.07"W
User Notes and Comments
43° 58' 54.69" N / 114° 2' 37.16" W
Distance To
Airport ID:
Nearby Airports
4 Twin Bridges 4.2 NM
U61 SW 231°
4 Copper Basin 16.3 NM
0U2 SE 139°
(U) Mackay 22.5 NM
U62 ESE 102°
4 Antelope Valley 30.4 NM
U92 SE 133°
4 Flat Top Airstrip 34.2 NM
81U S 169°
(R) Flying Joseph Ranch 34.6 NM
0ID2 NNE 22°
(C) Friedman Memorial 35.3 NM
KSUN ( WX ) SSW 200°
VFR Chart
Flight Planning at SkyVector.com